sensor_id;sensor_type;location;lat;lon;timestamp;temperature;humidity
6865;DHT22;3471;49.678;8.388;2023-08-12T00:01:31;23.10;99.90
6865;DHT22;3471;49.678;8.388;2023-08-12T00:03:57;23.10;99.90
6865;DHT22;3471;49.678;8.388;2023-08-12T00:06:22;23.10;99.90
6865;DHT22;3471;49.678;8.388;2023-08-12T00:08:48;23.10;99.90
6865;DHT22;3471;49.678;8.388;2023-08-12T00:11:13;23.10;99.90
6865;DHT22;3471;49.678;8.388;2023-08-12T00:13:39;23.10;99.90
6865;DHT22;3471;49.678;8.388;2023-08-12T00:16:05;23.10;99.90
6865;DHT22;3471;49.678;8.388;2023-08-12T00:18:30;23.10;99.90
6865;DHT22;3471;49.678;8.388;2023-08-12T00:21:06;23.10;99.90
6865;DHT22;3471;49.678;8.388;2023-08-12T00:23:31;23.10;99.90
6865;DHT22;3471;49.678;8.388;2023-08-12T00:25:58;23.10;99.90
6865;DHT22;3471;49.678;8.388;2023-08-12T00:28:24;23.10;99.90
6865;DHT22;3471;49.678;8.388;2023-08-12T00:30:49;23.10;99.90
6865;DHT22;3471;49.678;8.388;2023-08-12T00:33:15;23.00;99.90
6865;DHT22;3471;49.678;8.388;2023-08-12T00:35:40;23.00;99.90
6865;DHT22;3471;49.678;8.388;2023-08-12T00:38:06;22.90;99.90
6865;DHT22;3471;49.678;8.388;2023-08-12T00:40:32;22.90;99.90
6865;DHT22;3471;49.678;8.388;2023-08-12T00:42:57;22.90;99.90
6865;DHT22;3471;49.678;8.388;2023-08-12T00:45:23;22.80;99.90
6865;DHT22;3471;49.678;8.388;2023-08-12T00:47:49;22.80;99.90
6865;DHT22;3471;49.678;8.388;2023-08-12T00:50:15;22.80;99.90
6865;DHT22;3471;49.678;8.388;2023-08-12T00:52:41;22.90;99.90
6865;DHT22;3471;49.678;8.388;2023-08-12T00:55:07;22.90;99.90
6865;DHT22;3471;49.678;8.388;2023-08-12T00:57:33;22.90;99.90
6865;DHT22;3471;49.678;8.388;2023-08-12T00:59:59;22.90;99.90
6865;DHT22;3471;49.678;8.388;2023-08-12T01:02:25;23.00;99.90
6865;DHT22;3471;49.678;8.388;2023-08-12T01:04:51;23.00;99.90
6865;DHT22;3471;49.678;8.388;2023-08-12T01:07:16;23.00;99.90
6865;DHT22;3471;49.678;8.388;2023-08-12T01:09:42;23.10;99.90
6865;DHT22;3471;49.678;8.388;2023-08-12T01:12:21;23.10;99.90
6865;DHT22;3471;49.678;8.388;2023-08-12T01:15:07;23.10;99.90
6865;DHT22;3471;49.678;8.388;2023-08-12T01:17:35;23.10;99.90
6865;DHT22;3471;49.678;8.388;2023-08-12T01:20:02;23.10;99.90
6865;DHT22;3471;49.678;8.388;2023-08-12T01:22:36;23.10;99.90
6865;DHT22;3471;49.678;8.388;2023-08-12T01:25:05;23.00;99.90
6865;DHT22;3471;49.678;8.388;2023-08-12T01:27:30;23.00;99.90
6865;DHT22;3471;49.678;8.388;2023-08-12T01:29:56;23.00;99.90
6865;DHT22;3471;49.678;8.388;2023-08-12T01:32:40;23.00;99.90
6865;DHT22;3471;49.678;8.388;2023-08-12T01:35:19;23.00;99.90
6865;DHT22;3471;49.678;8.388;2023-08-12T01:37:47;23.10;99.90
6865;DHT22;3471;49.678;8.388;2023-08-12T01:40:15;23.10;99.90
6865;DHT22;3471;49.678;8.388;2023-08-12T01:42:42;23.10;99.90
6865;DHT22;3471;49.678;8.388;2023-08-12T01:45:08;23.10;99.90
6865;DHT22;3471;49.678;8.388;2023-08-12T01:47:34;23.10;99.90
6865;DHT22;3471;49.678;8.388;2023-08-12T01:50:00;23.10;99.90
6865;DHT22;3471;49.678;8.388;2023-08-12T01:52:25;23.10;99.90
6865;DHT22;3471;49.678;8.388;2023-08-12T01:54:51;23.10;99.90
6865;DHT22;3471;49.678;8.388;2023-08-12T01:57:17;23.00;99.90
6865;DHT22;3471;49.678;8.388;2023-08-12T01:59:43;23.10;99.90
6865;DHT22;3471;49.678;8.388;2023-08-12T02:02:09;23.10;99.90
6865;DHT22;3471;49.678;8.388;2023-08-12T02:04:35;23.10;99.90
6865;DHT22;3471;49.678;8.388;2023-08-12T02:07:03;23.10;99.90
6865;DHT22;3471;49.678;8.388;2023-08-12T02:09:29;23.10;99.90
6865;DHT22;3471;49.678;8.388;2023-08-12T02:11:54;23.10;99.90
6865;DHT22;3471;49.678;8.388;2023-08-12T02:14:20;23.10;99.90
6865;DHT22;3471;49.678;8.388;2023-08-12T02:16:45;23.10;99.90
6865;DHT22;3471;49.678;8.388;2023-08-12T02:19:11;23.10;99.90
6865;DHT22;3471;49.678;8.388;2023-08-12T02:21:37;23.10;99.90
6865;DHT22;3471;49.678;8.388;2023-08-12T02:24:02;23.10;99.90
6865;DHT22;3471;49.678;8.388;2023-08-12T02:26:28;23.10;99.90
6865;DHT22;3471;49.678;8.388;2023-08-12T02:28:54;23.00;99.90
6865;DHT22;3471;49.678;8.388;2023-08-12T02:31:19;23.00;99.90
6865;DHT22;3471;49.678;8.388;2023-08-12T02:33:45;23.00;99.90
6865;DHT22;3471;49.678;8.388;2023-08-12T02:36:10;23.00;99.90
6865;DHT22;3471;49.678;8.388;2023-08-12T02:38:36;23.00;99.90
6865;DHT22;3471;49.678;8.388;2023-08-12T02:41:01;23.00;99.90
6865;DHT22;3471;49.678;8.388;2023-08-12T02:43:27;23.00;99.90
6865;DHT22;3471;49.678;8.388;2023-08-12T02:45:53;23.00;99.90
6865;DHT22;3471;49.678;8.388;2023-08-12T02:48:18;23.10;99.90
6865;DHT22;3471;49.678;8.388;2023-08-12T02:50:44;23.00;99.90
6865;DHT22;3471;49.678;8.388;2023-08-12T02:53:10;23.00;99.90
6865;DHT22;3471;49.678;8.388;2023-08-12T02:55:35;23.00;99.90
6865;DHT22;3471;49.678;8.388;2023-08-12T02:58:03;23.00;99.90
6865;DHT22;3471;49.678;8.388;2023-08-12T03:00:29;23.00;99.90
6865;DHT22;3471;49.678;8.388;2023-08-12T03:02:55;23.00;99.90
6865;DHT22;3471;49.678;8.388;2023-08-12T03:05:21;22.90;99.90
6865;DHT22;3471;49.678;8.388;2023-08-12T03:07:47;22.90;99.90
6865;DHT22;3471;49.678;8.388;2023-08-12T03:10:13;22.90;99.90
6865;DHT22;3471;49.678;8.388;2023-08-12T03:12:39;23.00;99.90
6865;DHT22;3471;49.678;8.388;2023-08-12T03:15:06;23.00;99.90
6865;DHT22;3471;49.678;8.388;2023-08-12T03:17:32;22.90;99.90
6865;DHT22;3471;49.678;8.388;2023-08-12T03:19:58;22.90;99.90
6865;DHT22;3471;49.678;8.388;2023-08-12T03:22:27;22.90;99.90
6865;DHT22;3471;49.678;8.388;2023-08-12T03:24:53;22.80;99.90
6865;DHT22;3471;49.678;8.388;2023-08-12T03:27:18;22.80;99.90
6865;DHT22;3471;49.678;8.388;2023-08-12T03:29:44;22.80;99.90
6865;DHT22;3471;49.678;8.388;2023-08-12T03:32:10;22.70;99.90
6865;DHT22;3471;49.678;8.388;2023-08-12T03:34:35;22.70;99.90
6865;DHT22;3471;49.678;8.388;2023-08-12T03:37:01;22.70;99.90
6865;DHT22;3471;49.678;8.388;2023-08-12T03:39:26;22.70;99.90
6865;DHT22;3471;49.678;8.388;2023-08-12T03:41:52;22.80;99.90
6865;DHT22;3471;49.678;8.388;2023-08-12T03:44:18;22.80;99.90
6865;DHT22;3471;49.678;8.388;2023-08-12T03:46:44;22.80;99.90
6865;DHT22;3471;49.678;8.388;2023-08-12T03:49:10;22.80;99.90
6865;DHT22;3471;49.678;8.388;2023-08-12T03:51:35;22.80;99.90
6865;DHT22;3471;49.678;8.388;2023-08-12T03:54:01;22.80;99.90
6865;DHT22;3471;49.678;8.388;2023-08-12T03:56:26;22.80;99.90
6865;DHT22;3471;49.678;8.388;2023-08-12T03:58:52;22.80;99.90
6865;DHT22;3471;49.678;8.388;2023-08-12T04:01:17;22.80;99.90
6865;DHT22;3471;49.678;8.388;2023-08-12T04:03:43;22.80;99.90
6865;DHT22;3471;49.678;8.388;2023-08-12T04:06:09;22.90;99.90
6865;DHT22;3471;49.678;8.388;2023-08-12T04:08:34;22.80;99.90
6865;DHT22;3471;49.678;8.388;2023-08-12T04:11:00;22.80;99.90
6865;DHT22;3471;49.678;8.388;2023-08-12T04:13:26;22.70;99.90
6865;DHT22;3471;49.678;8.388;2023-08-12T04:15:51;22.70;99.90
6865;DHT22;3471;49.678;8.388;2023-08-12T04:18:19;22.70;99.90
6865;DHT22;3471;49.678;8.388;2023-08-12T04:20:51;22.70;99.90
6865;DHT22;3471;49.678;8.388;2023-08-12T04:23:18;22.70;99.90
6865;DHT22;3471;49.678;8.388;2023-08-12T04:25:45;22.70;99.90
6865;DHT22;3471;49.678;8.388;2023-08-12T04:28:12;22.60;99.90
6865;DHT22;3471;49.678;8.388;2023-08-12T04:30:45;22.60;99.90
6865;DHT22;3471;49.678;8.388;2023-08-12T04:33:12;22.60;99.90
6865;DHT22;3471;49.678;8.388;2023-08-12T04:35:38;22.60;99.90
6865;DHT22;3471;49.678;8.388;2023-08-12T04:38:04;22.60;99.90
6865;DHT22;3471;49.678;8.388;2023-08-12T04:40:30;22.60;99.90
6865;DHT22;3471;49.678;8.388;2023-08-12T04:42:56;22.70;99.90
6865;DHT22;3471;49.678;8.388;2023-08-12T04:45:21;22.60;99.90
6865;DHT22;3471;49.678;8.388;2023-08-12T04:47:47;22.60;99.90
6865;DHT22;3471;49.678;8.388;2023-08-12T04:50:12;22.60;99.90
6865;DHT22;3471;49.678;8.388;2023-08-12T04:52:38;22.60;99.90
6865;DHT22;3471;49.678;8.388;2023-08-12T04:55:04;22.60;99.90
6865;DHT22;3471;49.678;8.388;2023-08-12T04:57:30;22.60;99.90
6865;DHT22;3471;49.678;8.388;2023-08-12T04:59:56;22.60;99.90
6865;DHT22;3471;49.678;8.388;2023-08-12T05:02:21;22.70;99.90
6865;DHT22;3471;49.678;8.388;2023-08-12T05:04:49;22.70;99.90
6865;DHT22;3471;49.678;8.388;2023-08-12T05:07:15;22.70;99.90
6865;DHT22;3471;49.678;8.388;2023-08-12T05:09:41;22.70;99.90
6865;DHT22;3471;49.678;8.388;2023-08-12T05:12:10;22.70;99.90
6865;DHT22;3471;49.678;8.388;2023-08-12T05:14:36;22.80;99.90
6865;DHT22;3471;49.678;8.388;2023-08-12T05:17:02;22.80;99.90
6865;DHT22;3471;49.678;8.388;2023-08-12T05:19:27;22.80;99.90
6865;DHT22;3471;49.678;8.388;2023-08-12T05:21:53;22.80;99.90
6865;DHT22;3471;49.678;8.388;2023-08-12T05:24:19;22.80;99.90
6865;DHT22;3471;49.678;8.388;2023-08-12T05:26:44;22.90;99.90
6865;DHT22;3471;49.678;8.388;2023-08-12T05:29:10;22.90;99.90
6865;DHT22;3471;49.678;8.388;2023-08-12T05:31:36;23.00;99.90
6865;DHT22;3471;49.678;8.388;2023-08-12T05:34:02;23.10;99.90
6865;DHT22;3471;49.678;8.388;2023-08-12T05:36:28;23.20;99.90
6865;DHT22;3471;49.678;8.388;2023-08-12T05:38:54;23.30;99.90
6865;DHT22;3471;49.678;8.388;2023-08-12T05:41:20;23.40;99.90
6865;DHT22;3471;49.678;8.388;2023-08-12T05:43:46;23.50;99.90
6865;DHT22;3471;49.678;8.388;2023-08-12T05:46:12;23.50;99.90
6865;DHT22;3471;49.678;8.388;2023-08-12T05:48:38;23.60;99.90
6865;DHT22;3471;49.678;8.388;2023-08-12T05:51:03;23.60;99.90
6865;DHT22;3471;49.678;8.388;2023-08-12T05:53:29;23.70;99.90
6865;DHT22;3471;49.678;8.388;2023-08-12T05:55:54;23.70;99.90
6865;DHT22;3471;49.678;8.388;2023-08-12T05:58:20;23.70;99.90
6865;DHT22;3471;49.678;8.388;2023-08-12T06:00:46;23.80;99.90
6865;DHT22;3471;49.678;8.388;2023-08-12T06:03:12;23.80;99.90
6865;DHT22;3471;49.678;8.388;2023-08-12T06:05:39;23.90;99.90
6865;DHT22;3471;49.678;8.388;2023-08-12T06:08:04;23.90;99.90
6865;DHT22;3471;49.678;8.388;2023-08-12T06:10:30;24.00;99.90
6865;DHT22;3471;49.678;8.388;2023-08-12T06:12:55;24.20;99.90
6865;DHT22;3471;49.678;8.388;2023-08-12T06:15:21;24.30;99.90
6865;DHT22;3471;49.678;8.388;2023-08-12T06:17:47;24.40;99.90
6865;DHT22;3471;49.678;8.388;2023-08-12T06:20:12;24.50;99.90
6865;DHT22;3471;49.678;8.388;2023-08-12T06:22:38;24.70;99.90
6865;DHT22;3471;49.678;8.388;2023-08-12T06:25:04;24.90;99.90
6865;DHT22;3471;49.678;8.388;2023-08-12T06:27:29;25.00;99.90
6865;DHT22;3471;49.678;8.388;2023-08-12T06:29:55;25.20;99.90
6865;DHT22;3471;49.678;8.388;2023-08-12T06:32:20;25.30;99.90
6865;DHT22;3471;49.678;8.388;2023-08-12T06:34:46;25.40;99.90
6865;DHT22;3471;49.678;8.388;2023-08-12T06:37:11;25.40;99.90
6865;DHT22;3471;49.678;8.388;2023-08-12T06:39:37;25.50;99.90
6865;DHT22;3471;49.678;8.388;2023-08-12T06:42:03;25.50;99.90
6865;DHT22;3471;49.678;8.388;2023-08-12T06:44:29;25.50;99.90
6865;DHT22;3471;49.678;8.388;2023-08-12T06:46:54;25.40;99.90
6865;DHT22;3471;49.678;8.388;2023-08-12T06:49:20;25.50;99.90
6865;DHT22;3471;49.678;8.388;2023-08-12T06:51:45;25.50;99.90
6865;DHT22;3471;49.678;8.388;2023-08-12T06:54:11;25.50;99.90
6865;DHT22;3471;49.678;8.388;2023-08-12T06:56:36;25.50;99.90
6865;DHT22;3471;49.678;8.388;2023-08-12T06:59:02;25.50;99.90
6865;DHT22;3471;49.678;8.388;2023-08-12T07:01:28;25.50;99.90
6865;DHT22;3471;49.678;8.388;2023-08-12T07:03:53;25.50;99.90
6865;DHT22;3471;49.678;8.388;2023-08-12T07:06:19;25.50;99.90
6865;DHT22;3471;49.678;8.388;2023-08-12T07:08:44;25.50;99.90
6865;DHT22;3471;49.678;8.388;2023-08-12T07:11:10;25.40;99.90
6865;DHT22;3471;49.678;8.388;2023-08-12T07:13:35;25.40;99.90
6865;DHT22;3471;49.678;8.388;2023-08-12T07:16:01;25.50;99.90
6865;DHT22;3471;49.678;8.388;2023-08-12T07:18:27;25.50;99.90
6865;DHT22;3471;49.678;8.388;2023-08-12T07:20:52;25.50;99.90
6865;DHT22;3471;49.678;8.388;2023-08-12T07:23:18;25.60;99.90
6865;DHT22;3471;49.678;8.388;2023-08-12T07:25:46;25.70;99.90
6865;DHT22;3471;49.678;8.388;2023-08-12T07:28:12;25.80;99.90
6865;DHT22;3471;49.678;8.388;2023-08-12T07:30:38;25.90;99.90
6865;DHT22;3471;49.678;8.388;2023-08-12T07:33:04;26.00;99.90
6865;DHT22;3471;49.678;8.388;2023-08-12T07:35:30;26.00;99.90
6865;DHT22;3471;49.678;8.388;2023-08-12T07:37:55;26.00;99.90
6865;DHT22;3471;49.678;8.388;2023-08-12T07:40:21;26.00;99.90
6865;DHT22;3471;49.678;8.388;2023-08-12T07:42:47;26.00;99.90
6865;DHT22;3471;49.678;8.388;2023-08-12T07:45:12;26.10;99.90
6865;DHT22;3471;49.678;8.388;2023-08-12T07:47:38;26.20;99.90
6865;DHT22;3471;49.678;8.388;2023-08-12T07:50:04;26.30;99.90
6865;DHT22;3471;49.678;8.388;2023-08-12T07:52:30;26.40;99.90
6865;DHT22;3471;49.678;8.388;2023-08-12T07:54:56;26.50;99.90
6865;DHT22;3471;49.678;8.388;2023-08-12T07:57:21;26.50;99.90
6865;DHT22;3471;49.678;8.388;2023-08-12T07:59:52;26.60;99.90
6865;DHT22;3471;49.678;8.388;2023-08-12T08:02:18;26.60;99.90
6865;DHT22;3471;49.678;8.388;2023-08-12T08:04:43;26.70;99.90
6865;DHT22;3471;49.678;8.388;2023-08-12T08:07:10;26.80;99.90
6865;DHT22;3471;49.678;8.388;2023-08-12T08:09:36;26.80;99.90
6865;DHT22;3471;49.678;8.388;2023-08-12T08:12:02;26.90;99.90
6865;DHT22;3471;49.678;8.388;2023-08-12T08:14:28;27.00;99.90
6865;DHT22;3471;49.678;8.388;2023-08-12T08:16:53;27.00;99.90
6865;DHT22;3471;49.678;8.388;2023-08-12T08:19:19;27.10;99.90
6865;DHT22;3471;49.678;8.388;2023-08-12T08:21:44;27.20;99.90
6865;DHT22;3471;49.678;8.388;2023-08-12T08:24:10;27.30;99.90
6865;DHT22;3471;49.678;8.388;2023-08-12T08:26:38;27.40;99.90
6865;DHT22;3471;49.678;8.388;2023-08-12T08:29:04;27.40;99.90
6865;DHT22;3471;49.678;8.388;2023-08-12T08:31:29;27.50;99.90
6865;DHT22;3471;49.678;8.388;2023-08-12T08:33:55;27.60;99.90
6865;DHT22;3471;49.678;8.388;2023-08-12T08:36:21;27.60;99.90
6865;DHT22;3471;49.678;8.388;2023-08-12T08:38:46;27.60;99.90
6865;DHT22;3471;49.678;8.388;2023-08-12T08:41:12;27.70;99.90
6865;DHT22;3471;49.678;8.388;2023-08-12T08:43:41;27.70;99.90
6865;DHT22;3471;49.678;8.388;2023-08-12T08:46:09;27.70;99.90
6865;DHT22;3471;49.678;8.388;2023-08-12T08:48:36;27.80;99.90
6865;DHT22;3471;49.678;8.388;2023-08-12T08:51:02;27.80;99.90
6865;DHT22;3471;49.678;8.388;2023-08-12T08:53:28;27.80;99.90
6865;DHT22;3471;49.678;8.388;2023-08-12T08:55:55;27.80;99.90
6865;DHT22;3471;49.678;8.388;2023-08-12T08:58:21;27.80;99.90
6865;DHT22;3471;49.678;8.388;2023-08-12T09:00:47;27.90;99.90
6865;DHT22;3471;49.678;8.388;2023-08-12T09:03:13;27.90;99.90
6865;DHT22;3471;49.678;8.388;2023-08-12T09:05:40;28.10;99.90
6865;DHT22;3471;49.678;8.388;2023-08-12T09:08:07;28.10;99.90
6865;DHT22;3471;49.678;8.388;2023-08-12T09:10:38;28.30;99.90
6865;DHT22;3471;49.678;8.388;2023-08-12T09:13:06;28.40;99.90
6865;DHT22;3471;49.678;8.388;2023-08-12T09:15:32;28.40;99.90
6865;DHT22;3471;49.678;8.388;2023-08-12T09:17:57;28.40;99.90
6865;DHT22;3471;49.678;8.388;2023-08-12T09:20:23;28.40;99.90
6865;DHT22;3471;49.678;8.388;2023-08-12T09:22:58;28.40;99.90
6865;DHT22;3471;49.678;8.388;2023-08-12T09:25:28;28.50;99.90
6865;DHT22;3471;49.678;8.388;2023-08-12T09:28:00;28.70;99.90
6865;DHT22;3471;49.678;8.388;2023-08-12T09:30:28;28.90;99.90
6865;DHT22;3471;49.678;8.388;2023-08-12T09:32:59;29.10;99.90
6865;DHT22;3471;49.678;8.388;2023-08-12T09:35:38;29.10;99.90
6865;DHT22;3471;49.678;8.388;2023-08-12T09:38:15;29.30;99.90
6865;DHT22;3471;49.678;8.388;2023-08-12T09:40:41;29.50;99.90
6865;DHT22;3471;49.678;8.388;2023-08-12T09:43:07;29.60;99.90
6865;DHT22;3471;49.678;8.388;2023-08-12T09:45:34;29.70;99.90
6865;DHT22;3471;49.678;8.388;2023-08-12T09:48:00;29.80;99.90
6865;DHT22;3471;49.678;8.388;2023-08-12T09:50:27;29.80;99.90
6865;DHT22;3471;49.678;8.388;2023-08-12T09:52:54;29.80;99.90
6865;DHT22;3471;49.678;8.388;2023-08-12T09:55:25;29.80;99.90
6865;DHT22;3471;49.678;8.388;2023-08-12T09:57:52;29.80;99.90
6865;DHT22;3471;49.678;8.388;2023-08-12T10:00:19;29.70;99.90
6865;DHT22;3471;49.678;8.388;2023-08-12T10:02:48;29.60;99.90
6865;DHT22;3471;49.678;8.388;2023-08-12T10:05:19;29.40;99.90
6865;DHT22;3471;49.678;8.388;2023-08-12T10:07:47;29.20;99.90
6865;DHT22;3471;49.678;8.388;2023-08-12T10:10:14;29.00;99.90
6865;DHT22;3471;49.678;8.388;2023-08-12T10:12:41;28.80;99.90
6865;DHT22;3471;49.678;8.388;2023-08-12T10:15:07;28.60;99.90
6865;DHT22;3471;49.678;8.388;2023-08-12T10:17:34;28.50;99.90
6865;DHT22;3471;49.678;8.388;2023-08-12T10:20:03;28.40;99.90
6865;DHT22;3471;49.678;8.388;2023-08-12T10:22:30;28.30;99.90
6865;DHT22;3471;49.678;8.388;2023-08-12T10:25:01;28.20;99.90
6865;DHT22;3471;49.678;8.388;2023-08-12T10:27:28;28.30;99.90
6865;DHT22;3471;49.678;8.388;2023-08-12T10:29:56;28.30;99.90
6865;DHT22;3471;49.678;8.388;2023-08-12T10:32:23;28.30;99.90
6865;DHT22;3471;49.678;8.388;2023-08-12T10:34:57;28.20;99.90
6865;DHT22;3471;49.678;8.388;2023-08-12T10:37:24;28.00;99.90
6865;DHT22;3471;49.678;8.388;2023-08-12T10:39:50;27.60;99.90
6865;DHT22;3471;49.678;8.388;2023-08-12T10:42:45;27.30;99.90
6865;DHT22;3471;49.678;8.388;2023-08-12T10:45:12;26.90;99.90
6865;DHT22;3471;49.678;8.388;2023-08-12T10:50:22;26.40;99.90
6865;DHT22;3471;49.678;8.388;2023-08-12T10:52:54;26.10;99.90
6865;DHT22;3471;49.678;8.388;2023-08-12T10:55:22;25.80;99.90
6865;DHT22;3471;49.678;8.388;2023-08-12T10:57:53;25.60;99.90
6865;DHT22;3471;49.678;8.388;2023-08-12T11:00:26;25.40;99.90
6865;DHT22;3471;49.678;8.388;2023-08-12T11:02:57;25.20;99.90
6865;DHT22;3471;49.678;8.388;2023-08-12T11:05:24;25.00;99.90
6865;DHT22;3471;49.678;8.388;2023-08-12T11:08:00;24.70;99.90
6865;DHT22;3471;49.678;8.388;2023-08-12T11:10:30;24.50;99.90
6865;DHT22;3471;49.678;8.388;2023-08-12T11:12:57;24.30;99.90
6865;DHT22;3471;49.678;8.388;2023-08-12T11:17:55;24.10;99.90
6865;DHT22;3471;49.678;8.388;2023-08-12T11:20:21;24.00;99.90
6865;DHT22;3471;49.678;8.388;2023-08-12T11:22:47;23.90;99.90
6865;DHT22;3471;49.678;8.388;2023-08-12T11:25:13;23.80;99.90
6865;DHT22;3471;49.678;8.388;2023-08-12T11:27:45;23.80;99.90
6865;DHT22;3471;49.678;8.388;2023-08-12T11:30:12;23.80;99.90
6865;DHT22;3471;49.678;8.388;2023-08-12T11:32:41;23.80;99.90
6865;DHT22;3471;49.678;8.388;2023-08-12T11:35:07;23.80;99.90
6865;DHT22;3471;49.678;8.388;2023-08-12T11:37:35;23.90;99.90
6865;DHT22;3471;49.678;8.388;2023-08-12T11:40:02;23.90;99.90
6865;DHT22;3471;49.678;8.388;2023-08-12T11:42:28;23.90;99.90
6865;DHT22;3471;49.678;8.388;2023-08-12T11:44:54;23.90;99.90
6865;DHT22;3471;49.678;8.388;2023-08-12T11:47:20;23.90;99.90
6865;DHT22;3471;49.678;8.388;2023-08-12T11:49:45;23.90;99.90
6865;DHT22;3471;49.678;8.388;2023-08-12T11:52:11;23.80;99.90
6865;DHT22;3471;49.678;8.388;2023-08-12T11:54:38;23.80;99.90
6865;DHT22;3471;49.678;8.388;2023-08-12T11:57:04;23.80;99.90
6865;DHT22;3471;49.678;8.388;2023-08-12T11:59:30;23.80;99.90
6865;DHT22;3471;49.678;8.388;2023-08-12T12:01:56;23.90;99.90
6865;DHT22;3471;49.678;8.388;2023-08-12T12:04:22;24.00;99.90
6865;DHT22;3471;49.678;8.388;2023-08-12T12:06:47;24.10;99.90
6865;DHT22;3471;49.678;8.388;2023-08-12T12:09:14;24.20;99.90
6865;DHT22;3471;49.678;8.388;2023-08-12T12:11:41;24.30;99.90
6865;DHT22;3471;49.678;8.388;2023-08-12T12:14:08;24.50;99.90
6865;DHT22;3471;49.678;8.388;2023-08-12T12:16:55;24.80;99.90
6865;DHT22;3471;49.678;8.388;2023-08-12T12:19:22;25.20;99.90
6865;DHT22;3471;49.678;8.388;2023-08-12T12:21:50;25.50;99.90
6865;DHT22;3471;49.678;8.388;2023-08-12T12:24:17;25.70;99.90
6865;DHT22;3471;49.678;8.388;2023-08-12T12:26:44;25.80;99.90
6865;DHT22;3471;49.678;8.388;2023-08-12T12:29:10;26.10;99.90
6865;DHT22;3471;49.678;8.388;2023-08-12T12:31:40;26.40;99.90
6865;DHT22;3471;49.678;8.388;2023-08-12T12:34:07;26.80;99.90
6865;DHT22;3471;49.678;8.388;2023-08-12T12:36:35;27.20;99.90
6865;DHT22;3471;49.678;8.388;2023-08-12T12:39:02;27.70;99.90
6865;DHT22;3471;49.678;8.388;2023-08-12T12:41:28;28.10;99.90
6865;DHT22;3471;49.678;8.388;2023-08-12T12:43:53;28.50;99.90
6865;DHT22;3471;49.678;8.388;2023-08-12T12:46:19;28.80;99.90
6865;DHT22;3471;49.678;8.388;2023-08-12T12:48:45;29.10;99.90
6865;DHT22;3471;49.678;8.388;2023-08-12T12:51:12;29.30;99.90
6865;DHT22;3471;49.678;8.388;2023-08-12T12:53:38;29.60;99.90
6865;DHT22;3471;49.678;8.388;2023-08-12T12:56:04;29.90;99.90
6865;DHT22;3471;49.678;8.388;2023-08-12T12:58:31;30.20;99.90
6865;DHT22;3471;49.678;8.388;2023-08-12T13:00:57;30.30;99.90
6865;DHT22;3471;49.678;8.388;2023-08-12T13:03:23;30.50;99.90
6865;DHT22;3471;49.678;8.388;2023-08-12T13:05:49;30.60;99.90
6865;DHT22;3471;49.678;8.388;2023-08-12T13:08:15;30.80;99.90
6865;DHT22;3471;49.678;8.388;2023-08-12T13:10:41;30.90;99.90
6865;DHT22;3471;49.678;8.388;2023-08-12T13:13:06;31.00;99.90
6865;DHT22;3471;49.678;8.388;2023-08-12T13:15:32;30.90;99.90
6865;DHT22;3471;49.678;8.388;2023-08-12T13:17:57;30.90;99.90
6865;DHT22;3471;49.678;8.388;2023-08-12T13:20:23;30.80;99.90
6865;DHT22;3471;49.678;8.388;2023-08-12T13:22:49;30.60;99.90
6865;DHT22;3471;49.678;8.388;2023-08-12T13:25:14;30.50;99.90
6865;DHT22;3471;49.678;8.388;2023-08-12T13:27:40;30.60;99.90
6865;DHT22;3471;49.678;8.388;2023-08-12T13:30:06;30.70;99.90
6865;DHT22;3471;49.678;8.388;2023-08-12T13:32:32;30.90;99.90
6865;DHT22;3471;49.678;8.388;2023-08-12T13:34:57;31.20;99.90
6865;DHT22;3471;49.678;8.388;2023-08-12T13:37:23;31.50;99.90
6865;DHT22;3471;49.678;8.388;2023-08-12T13:39:48;31.80;99.90
6865;DHT22;3471;49.678;8.388;2023-08-12T13:42:14;32.10;99.90
6865;DHT22;3471;49.678;8.388;2023-08-12T13:44:39;32.20;99.90
6865;DHT22;3471;49.678;8.388;2023-08-12T13:47:05;32.10;99.90
6865;DHT22;3471;49.678;8.388;2023-08-12T13:49:32;31.80;99.90
6865;DHT22;3471;49.678;8.388;2023-08-12T13:51:57;31.50;99.90
6865;DHT22;3471;49.678;8.388;2023-08-12T13:54:24;31.10;99.90
6865;DHT22;3471;49.678;8.388;2023-08-12T13:56:50;30.80;99.90
6865;DHT22;3471;49.678;8.388;2023-08-12T13:59:15;30.50;99.90
6865;DHT22;3471;49.678;8.388;2023-08-12T14:01:41;30.40;99.90
6865;DHT22;3471;49.678;8.388;2023-08-12T14:04:07;30.30;99.90
6865;DHT22;3471;49.678;8.388;2023-08-12T14:06:32;30.40;99.90
6865;DHT22;3471;49.678;8.388;2023-08-12T14:08:58;30.50;99.90
6865;DHT22;3471;49.678;8.388;2023-08-12T14:11:23;30.60;99.90
6865;DHT22;3471;49.678;8.388;2023-08-12T14:13:49;30.80;99.90
6865;DHT22;3471;49.678;8.388;2023-08-12T14:16:14;30.90;99.90
6865;DHT22;3471;49.678;8.388;2023-08-12T14:18:40;30.90;99.90
6865;DHT22;3471;49.678;8.388;2023-08-12T14:21:05;30.90;99.90
6865;DHT22;3471;49.678;8.388;2023-08-12T14:23:31;31.00;99.90
6865;DHT22;3471;49.678;8.388;2023-08-12T14:25:57;31.20;99.90
6865;DHT22;3471;49.678;8.388;2023-08-12T14:28:23;31.60;99.90
6865;DHT22;3471;49.678;8.388;2023-08-12T14:30:48;32.00;99.90
6865;DHT22;3471;49.678;8.388;2023-08-12T14:33:14;32.10;99.90
6865;DHT22;3471;49.678;8.388;2023-08-12T14:35:40;32.00;99.90
6865;DHT22;3471;49.678;8.388;2023-08-12T14:38:05;31.80;99.90
6865;DHT22;3471;49.678;8.388;2023-08-12T14:40:31;31.40;99.90
6865;DHT22;3471;49.678;8.388;2023-08-12T14:42:56;31.00;99.90
6865;DHT22;3471;49.678;8.388;2023-08-12T14:45:22;30.70;99.90
6865;DHT22;3471;49.678;8.388;2023-08-12T14:47:47;30.50;99.90
6865;DHT22;3471;49.678;8.388;2023-08-12T14:50:13;30.30;99.90
6865;DHT22;3471;49.678;8.388;2023-08-12T14:52:38;30.40;99.90
6865;DHT22;3471;49.678;8.388;2023-08-12T14:55:04;30.70;99.90
6865;DHT22;3471;49.678;8.388;2023-08-12T14:57:30;31.20;99.90
6865;DHT22;3471;49.678;8.388;2023-08-12T14:59:56;31.70;99.90
6865;DHT22;3471;49.678;8.388;2023-08-12T15:02:21;31.90;99.90
6865;DHT22;3471;49.678;8.388;2023-08-12T15:04:50;32.10;99.90
6865;DHT22;3471;49.678;8.388;2023-08-12T15:07:16;32.00;99.90
6865;DHT22;3471;49.678;8.388;2023-08-12T15:09:44;31.80;99.90
6865;DHT22;3471;49.678;8.388;2023-08-12T15:12:09;31.50;99.90
6865;DHT22;3471;49.678;8.388;2023-08-12T15:14:35;31.20;99.90
6865;DHT22;3471;49.678;8.388;2023-08-12T15:17:01;30.90;99.90
6865;DHT22;3471;49.678;8.388;2023-08-12T15:19:26;30.70;99.90
6865;DHT22;3471;49.678;8.388;2023-08-12T15:21:52;30.50;99.90
6865;DHT22;3471;49.678;8.388;2023-08-12T15:24:17;30.30;99.90
6865;DHT22;3471;49.678;8.388;2023-08-12T15:26:43;30.10;99.90
6865;DHT22;3471;49.678;8.388;2023-08-12T15:29:08;29.90;99.90
6865;DHT22;3471;49.678;8.388;2023-08-12T15:31:35;29.60;99.90
6865;DHT22;3471;49.678;8.388;2023-08-12T15:34:01;29.30;99.90
6865;DHT22;3471;49.678;8.388;2023-08-12T15:36:27;29.10;99.90
6865;DHT22;3471;49.678;8.388;2023-08-12T15:38:52;28.80;99.90
6865;DHT22;3471;49.678;8.388;2023-08-12T15:41:18;28.60;99.90
6865;DHT22;3471;49.678;8.388;2023-08-12T15:43:44;28.50;99.90
6865;DHT22;3471;49.678;8.388;2023-08-12T15:46:09;28.40;99.90
6865;DHT22;3471;49.678;8.388;2023-08-12T15:48:35;28.40;99.90
6865;DHT22;3471;49.678;8.388;2023-08-12T15:51:01;28.40;99.90
6865;DHT22;3471;49.678;8.388;2023-08-12T15:53:27;28.40;99.90
6865;DHT22;3471;49.678;8.388;2023-08-12T15:55:53;28.30;99.90
6865;DHT22;3471;49.678;8.388;2023-08-12T15:58:18;28.20;99.90
6865;DHT22;3471;49.678;8.388;2023-08-12T16:00:47;28.20;99.90
6865;DHT22;3471;49.678;8.388;2023-08-12T16:03:17;28.10;99.90